sensor_id;sensor_type;location;lat;lon;timestamp;P1;durP1;ratioP1;P2;durP2;ratioP2
57718;SDS011;43561;50.090;18.522;2023-12-20T00:06:07;21.83;;;11.23;;
57718;SDS011;43561;50.090;18.522;2023-12-20T00:16:09;20.05;;;13.20;;
57718;SDS011;43561;50.090;18.522;2023-12-20T00:26:12;18.77;;;13.30;;
57718;SDS011;43561;50.090;18.522;2023-12-20T00:36:14;16.65;;;10.82;;
57718;SDS011;43561;50.090;18.522;2023-12-20T00:46:16;13.45;;;10.77;;
57718;SDS011;43561;50.090;18.522;2023-12-20T00:56:18;26.48;;;14.52;;
57718;SDS011;43561;50.090;18.522;2023-12-20T01:06:20;22.35;;;14.00;;
57718;SDS011;43561;50.090;18.522;2023-12-20T01:16:22;21.48;;;12.40;;
57718;SDS011;43561;50.090;18.522;2023-12-20T01:26:24;27.55;;;17.98;;
57718;SDS011;43561;50.090;18.522;2023-12-20T01:36:26;28.80;;;17.35;;
57718;SDS011;43561;50.090;18.522;2023-12-20T01:46:28;26.67;;;15.32;;
57718;SDS011;43561;50.090;18.522;2023-12-20T01:56:30;21.88;;;13.88;;
57718;SDS011;43561;50.090;18.522;2023-12-20T02:06:33;22.33;;;13.90;;
57718;SDS011;43561;50.090;18.522;2023-12-20T02:16:35;22.60;;;14.60;;
57718;SDS011;43561;50.090;18.522;2023-12-20T02:26:37;15.50;;;11.63;;
57718;SDS011;43561;50.090;18.522;2023-12-20T02:36:40;18.77;;;13.10;;
57718;SDS011;43561;50.090;18.522;2023-12-20T02:46:43;19.13;;;12.20;;
57718;SDS011;43561;50.090;18.522;2023-12-20T02:56:47;20.95;;;14.27;;
57718;SDS011;43561;50.090;18.522;2023-12-20T03:06:49;22.73;;;15.13;;
57718;SDS011;43561;50.090;18.522;2023-12-20T03:16:51;27.20;;;19.58;;
57718;SDS011;43561;50.090;18.522;2023-12-20T03:26:53;32.35;;;17.83;;
57718;SDS011;43561;50.090;18.522;2023-12-20T03:36:55;30.73;;;16.63;;
57718;SDS011;43561;50.090;18.522;2023-12-20T03:46:57;31.25;;;19.60;;
57718;SDS011;43561;50.090;18.522;2023-12-20T03:56:59;30.45;;;21.58;;
57718;SDS011;43561;50.090;18.522;2023-12-20T04:07:01;32.80;;;21.45;;
57718;SDS011;43561;50.090;18.522;2023-12-20T04:17:03;29.65;;;18.42;;
57718;SDS011;43561;50.090;18.522;2023-12-20T04:27:05;24.90;;;16.27;;
57718;SDS011;43561;50.090;18.522;2023-12-20T04:37:07;41.95;;;22.15;;
57718;SDS011;43561;50.090;18.522;2023-12-20T04:47:09;37.70;;;22.33;;
57718;SDS011;43561;50.090;18.522;2023-12-20T04:57:14;42.15;;;20.85;;
57718;SDS011;43561;50.090;18.522;2023-12-20T05:07:16;57.17;;;30.05;;
57718;SDS011;43561;50.090;18.522;2023-12-20T05:17:18;46.72;;;24.40;;
57718;SDS011;43561;50.090;18.522;2023-12-20T05:27:20;39.00;;;25.92;;
57718;SDS011;43561;50.090;18.522;2023-12-20T05:37:22;43.15;;;29.08;;
57718;SDS011;43561;50.090;18.522;2023-12-20T05:47:24;54.15;;;29.10;;
57718;SDS011;43561;50.090;18.522;2023-12-20T05:57:26;46.13;;;27.13;;
57718;SDS011;43561;50.090;18.522;2023-12-20T06:07:28;54.03;;;26.90;;
57718;SDS011;43561;50.090;18.522;2023-12-20T06:17:31;51.90;;;29.92;;
57718;SDS011;43561;50.090;18.522;2023-12-20T06:27:33;46.40;;;23.58;;
57718;SDS011;43561;50.090;18.522;2023-12-20T06:37:35;49.03;;;24.55;;
57718;SDS011;43561;50.090;18.522;2023-12-20T06:47:37;41.75;;;25.67;;
57718;SDS011;43561;50.090;18.522;2023-12-20T06:57:39;49.17;;;24.08;;
57718;SDS011;43561;50.090;18.522;2023-12-20T07:07:40;42.60;;;24.88;;
57718;SDS011;43561;50.090;18.522;2023-12-20T07:17:42;43.90;;;24.88;;
57718;SDS011;43561;50.090;18.522;2023-12-20T07:27:45;41.97;;;26.20;;
57718;SDS011;43561;50.090;18.522;2023-12-20T07:37:47;51.75;;;25.40;;
57718;SDS011;43561;50.090;18.522;2023-12-20T07:47:49;47.58;;;29.00;;
57718;SDS011;43561;50.090;18.522;2023-12-20T07:57:52;50.00;;;29.02;;
57718;SDS011;43561;50.090;18.522;2023-12-20T08:07:54;36.97;;;25.60;;
57718;SDS011;43561;50.090;18.522;2023-12-20T08:17:56;51.25;;;29.75;;
57718;SDS011;43561;50.090;18.522;2023-12-20T08:27:58;53.63;;;30.05;;
57718;SDS011;43561;50.090;18.522;2023-12-20T08:38:00;62.30;;;32.17;;
57718;SDS011;43561;50.090;18.522;2023-12-20T08:48:02;64.22;;;35.50;;
57718;SDS011;43561;50.090;18.522;2023-12-20T08:58:08;66.18;;;41.00;;
57718;SDS011;43561;50.090;18.522;2023-12-20T09:08:10;68.38;;;40.15;;
57718;SDS011;43561;50.090;18.522;2023-12-20T09:18:12;52.65;;;34.13;;
57718;SDS011;43561;50.090;18.522;2023-12-20T09:28:14;73.28;;;38.58;;
57718;SDS011;43561;50.090;18.522;2023-12-20T09:38:16;72.97;;;36.75;;
57718;SDS011;43561;50.090;18.522;2023-12-20T09:48:18;68.10;;;35.50;;
57718;SDS011;43561;50.090;18.522;2023-12-20T09:58:21;80.18;;;39.85;;
57718;SDS011;43561;50.090;18.522;2023-12-20T10:08:24;72.03;;;40.28;;
57718;SDS011;43561;50.090;18.522;2023-12-20T10:18:26;72.80;;;39.58;;
57718;SDS011;43561;50.090;18.522;2023-12-20T10:28:39;65.38;;;37.58;;
57718;SDS011;43561;50.090;18.522;2023-12-20T10:38:42;49.53;;;30.10;;
57718;SDS011;43561;50.090;18.522;2023-12-20T10:48:44;59.90;;;31.05;;
57718;SDS011;43561;50.090;18.522;2023-12-20T10:58:48;62.80;;;36.22;;
57718;SDS011;43561;50.090;18.522;2023-12-20T11:08:52;60.40;;;36.33;;
57718;SDS011;43561;50.090;18.522;2023-12-20T11:19:15;51.45;;;29.60;;
57718;SDS011;43561;50.090;18.522;2023-12-20T11:29:31;57.13;;;32.38;;
57718;SDS011;43561;50.090;18.522;2023-12-20T11:39:37;51.80;;;30.65;;
57718;SDS011;43561;50.090;18.522;2023-12-20T11:49:39;52.33;;;30.25;;
57718;SDS011;43561;50.090;18.522;2023-12-20T11:59:41;62.95;;;37.08;;
57718;SDS011;43561;50.090;18.522;2023-12-20T12:09:44;61.63;;;39.95;;
57718;SDS011;43561;50.090;18.522;2023-12-20T12:19:47;55.58;;;34.28;;
57718;SDS011;43561;50.090;18.522;2023-12-20T12:30:02;47.42;;;25.52;;
57718;SDS011;43561;50.090;18.522;2023-12-20T12:40:06;39.22;;;20.85;;
57718;SDS011;43561;50.090;18.522;2023-12-20T12:50:10;28.33;;;17.63;;
57718;SDS011;43561;50.090;18.522;2023-12-20T13:00:13;32.72;;;20.30;;
57718;SDS011;43561;50.090;18.522;2023-12-20T13:10:15;45.05;;;22.55;;
57718;SDS011;43561;50.090;18.522;2023-12-20T13:20:17;38.55;;;23.48;;
57718;SDS011;43561;50.090;18.522;2023-12-20T13:30:19;52.58;;;28.67;;
57718;SDS011;43561;50.090;18.522;2023-12-20T13:40:21;45.28;;;25.83;;
57718;SDS011;43561;50.090;18.522;2023-12-20T13:50:23;48.17;;;31.33;;
57718;SDS011;43561;50.090;18.522;2023-12-20T14:00:25;40.38;;;27.25;;
57718;SDS011;43561;50.090;18.522;2023-12-20T14:10:28;46.08;;;28.27;;
57718;SDS011;43561;50.090;18.522;2023-12-20T14:20:30;48.05;;;27.63;;
57718;SDS011;43561;50.090;18.522;2023-12-20T14:30:32;47.40;;;27.85;;
57718;SDS011;43561;50.090;18.522;2023-12-20T14:40:34;43.53;;;27.48;;
57718;SDS011;43561;50.090;18.522;2023-12-20T14:50:36;69.25;;;36.08;;
57718;SDS011;43561;50.090;18.522;2023-12-20T15:00:38;72.15;;;35.85;;
57718;SDS011;43561;50.090;18.522;2023-12-20T15:10:40;57.47;;;30.25;;
57718;SDS011;43561;50.090;18.522;2023-12-20T15:20:42;79.95;;;40.55;;
57718;SDS011;43561;50.090;18.522;2023-12-20T15:30:44;66.20;;;40.75;;
57718;SDS011;43561;50.090;18.522;2023-12-20T15:40:46;60.53;;;37.67;;
57718;SDS011;43561;50.090;18.522;2023-12-20T15:50:48;56.08;;;27.92;;
57718;SDS011;43561;50.090;18.522;2023-12-20T16:00:50;46.67;;;26.83;;
57718;SDS011;43561;50.090;18.522;2023-12-20T16:10:53;50.60;;;23.75;;
57718;SDS011;43561;50.090;18.522;2023-12-20T16:20:55;32.50;;;20.00;;
57718;SDS011;43561;50.090;18.522;2023-12-20T16:30:57;44.00;;;23.33;;
57718;SDS011;43561;50.090;18.522;2023-12-20T16:40:59;39.25;;;24.15;;
57718;SDS011;43561;50.090;18.522;2023-12-20T16:51:01;45.65;;;27.92;;
57718;SDS011;43561;50.090;18.522;2023-12-20T17:01:06;38.25;;;22.30;;
57718;SDS011;43561;50.090;18.522;2023-12-20T17:11:11;44.28;;;24.60;;
57718;SDS011;43561;50.090;18.522;2023-12-20T17:21:13;45.88;;;22.27;;
57718;SDS011;43561;50.090;18.522;2023-12-20T17:31:18;39.20;;;20.80;;
57718;SDS011;43561;50.090;18.522;2023-12-20T17:41:20;36.20;;;21.48;;
57718;SDS011;43561;50.090;18.522;2023-12-20T17:51:22;35.35;;;22.08;;
57718;SDS011;43561;50.090;18.522;2023-12-20T18:01:24;40.50;;;24.13;;
57718;SDS011;43561;50.090;18.522;2023-12-20T18:11:26;36.85;;;23.33;;
57718;SDS011;43561;50.090;18.522;2023-12-20T18:21:28;41.90;;;21.63;;
57718;SDS011;43561;50.090;18.522;2023-12-20T18:31:30;37.72;;;25.27;;
57718;SDS011;43561;50.090;18.522;2023-12-20T18:41:32;57.75;;;19.00;;
57718;SDS011;43561;50.090;18.522;2023-12-20T18:51:34;65.50;;;36.97;;
57718;SDS011;43561;50.090;18.522;2023-12-20T19:01:36;56.58;;;35.25;;
57718;SDS011;43561;50.090;18.522;2023-12-20T19:11:40;35.30;;;20.00;;
57718;SDS011;43561;50.090;18.522;2023-12-20T19:21:42;24.73;;;14.57;;
57718;SDS011;43561;50.090;18.522;2023-12-20T19:31:44;18.25;;;12.98;;
57718;SDS011;43561;50.090;18.522;2023-12-20T19:41:46;20.17;;;11.05;;
57718;SDS011;43561;50.090;18.522;2023-12-20T19:51:48;21.13;;;12.70;;
57718;SDS011;43561;50.090;18.522;2023-12-20T20:01:50;32.03;;;19.13;;
57718;SDS011;43561;50.090;18.522;2023-12-20T20:11:52;39.15;;;19.85;;
57718;SDS011;43561;50.090;18.522;2023-12-20T20:21:54;27.15;;;13.50;;
57718;SDS011;43561;50.090;18.522;2023-12-20T20:31:56;29.80;;;15.80;;
57718;SDS011;43561;50.090;18.522;2023-12-20T20:41:58;32.17;;;19.77;;
57718;SDS011;43561;50.090;18.522;2023-12-20T20:52:00;53.53;;;25.15;;
57718;SDS011;43561;50.090;18.522;2023-12-20T21:02:02;38.85;;;21.17;;
57718;SDS011;43561;50.090;18.522;2023-12-20T21:12:04;18.65;;;10.73;;
57718;SDS011;43561;50.090;18.522;2023-12-20T21:22:07;24.58;;;11.60;;
57718;SDS011;43561;50.090;18.522;2023-12-20T21:32:09;16.77;;;11.20;;
57718;SDS011;43561;50.090;18.522;2023-12-20T21:42:11;29.42;;;12.63;;
57718;SDS011;43561;50.090;18.522;2023-12-20T21:52:12;23.33;;;12.95;;
57718;SDS011;43561;50.090;18.522;2023-12-20T22:02:18;28.45;;;12.20;;
57718;SDS011;43561;50.090;18.522;2023-12-20T22:12:20;28.13;;;15.68;;
57718;SDS011;43561;50.090;18.522;2023-12-20T22:22:22;26.25;;;13.10;;
57718;SDS011;43561;50.090;18.522;2023-12-20T22:32:24;45.15;;;20.05;;
57718;SDS011;43561;50.090;18.522;2023-12-20T22:42:26;28.20;;;14.32;;
57718;SDS011;43561;50.090;18.522;2023-12-20T22:52:35;19.15;;;10.68;;
57718;SDS011;43561;50.090;18.522;2023-12-20T23:02:39;23.42;;;10.60;;
57718;SDS011;43561;50.090;18.522;2023-12-20T23:12:41;15.82;;;9.82;;
57718;SDS011;43561;50.090;18.522;2023-12-20T23:22:42;15.88;;;8.88;;
57718;SDS011;43561;50.090;18.522;2023-12-20T23:32:44;10.55;;;6.43;;
57718;SDS011;43561;50.090;18.522;2023-12-20T23:42:49;15.73;;;9.25;;
57718;SDS011;43561;50.090;18.522;2023-12-20T23:52:51;17.23;;;7.88;;
